sensor_id;sensor_type;location;lat;lon;timestamp;P1;durP1;ratioP1;P2;durP2;ratioP2
34072;SDS011;20346;52.702;16.886;2024-03-25T00:00:40;9.00;;;7.30;;
34072;SDS011;20346;52.702;16.886;2024-03-25T00:03:06;7.90;;;7.20;;
34072;SDS011;20346;52.702;16.886;2024-03-25T00:05:31;10.00;;;8.00;;
34072;SDS011;20346;52.702;16.886;2024-03-25T00:07:57;9.60;;;7.80;;
34072;SDS011;20346;52.702;16.886;2024-03-25T00:10:23;9.10;;;8.00;;
34072;SDS011;20346;52.702;16.886;2024-03-25T00:12:49;10.00;;;8.40;;
34072;SDS011;20346;52.702;16.886;2024-03-25T00:15:18;12.50;;;8.50;;
34072;SDS011;20346;52.702;16.886;2024-03-25T00:17:45;10.40;;;7.80;;
34072;SDS011;20346;52.702;16.886;2024-03-25T00:22:36;9.70;;;7.80;;
34072;SDS011;20346;52.702;16.886;2024-03-25T00:25:02;11.00;;;8.10;;
34072;SDS011;20346;52.702;16.886;2024-03-25T00:27:27;11.90;;;8.10;;
34072;SDS011;20346;52.702;16.886;2024-03-25T00:29:54;10.30;;;8.20;;
34072;SDS011;20346;52.702;16.886;2024-03-25T00:32:19;8.90;;;8.00;;
34072;SDS011;20346;52.702;16.886;2024-03-25T00:34:45;8.60;;;7.00;;
34072;SDS011;20346;52.702;16.886;2024-03-25T00:37:10;12.00;;;7.40;;
34072;SDS011;20346;52.702;16.886;2024-03-25T00:39:35;8.50;;;7.50;;
34072;SDS011;20346;52.702;16.886;2024-03-25T00:42:01;9.50;;;8.10;;
34072;SDS011;20346;52.702;16.886;2024-03-25T00:44:26;11.30;;;7.50;;
34072;SDS011;20346;52.702;16.886;2024-03-25T00:46:51;9.90;;;7.40;;
34072;SDS011;20346;52.702;16.886;2024-03-25T00:49:17;7.60;;;7.00;;
34072;SDS011;20346;52.702;16.886;2024-03-25T00:51:42;10.80;;;7.30;;
34072;SDS011;20346;52.702;16.886;2024-03-25T00:54:08;9.00;;;6.90;;
34072;SDS011;20346;52.702;16.886;2024-03-25T00:56:33;9.80;;;7.30;;
34072;SDS011;20346;52.702;16.886;2024-03-25T00:58:59;9.40;;;7.30;;
34072;SDS011;20346;52.702;16.886;2024-03-25T01:01:28;8.90;;;7.50;;
34072;SDS011;20346;52.702;16.886;2024-03-25T01:03:54;7.60;;;6.70;;
34072;SDS011;20346;52.702;16.886;2024-03-25T01:06:19;9.60;;;6.80;;
34072;SDS011;20346;52.702;16.886;2024-03-25T01:08:44;8.90;;;7.10;;
34072;SDS011;20346;52.702;16.886;2024-03-25T01:11:09;7.90;;;7.10;;
34072;SDS011;20346;52.702;16.886;2024-03-25T01:13:35;7.90;;;6.30;;
34072;SDS011;20346;52.702;16.886;2024-03-25T01:16:00;8.90;;;7.40;;
34072;SDS011;20346;52.702;16.886;2024-03-25T01:18:26;7.30;;;6.50;;
34072;SDS011;20346;52.702;16.886;2024-03-25T01:20:51;9.70;;;7.30;;
34072;SDS011;20346;52.702;16.886;2024-03-25T01:23:16;8.20;;;6.90;;
34072;SDS011;20346;52.702;16.886;2024-03-25T01:25:42;10.80;;;7.50;;
34072;SDS011;20346;52.702;16.886;2024-03-25T01:28:07;10.00;;;7.20;;
34072;SDS011;20346;52.702;16.886;2024-03-25T01:30:32;8.30;;;7.20;;
34072;SDS011;20346;52.702;16.886;2024-03-25T01:33:00;9.50;;;7.20;;
34072;SDS011;20346;52.702;16.886;2024-03-25T01:35:25;8.50;;;7.60;;
34072;SDS011;20346;52.702;16.886;2024-03-25T01:37:51;10.00;;;7.60;;
34072;SDS011;20346;52.702;16.886;2024-03-25T01:40:16;8.70;;;7.60;;
34072;SDS011;20346;52.702;16.886;2024-03-25T01:42:42;7.40;;;6.70;;
34072;SDS011;20346;52.702;16.886;2024-03-25T01:45:09;5.30;;;4.80;;
34072;SDS011;20346;52.702;16.886;2024-03-25T01:47:35;4.70;;;4.10;;
34072;SDS011;20346;52.702;16.886;2024-03-25T01:50:00;4.20;;;3.80;;
34072;SDS011;20346;52.702;16.886;2024-03-25T01:52:28;5.80;;;3.80;;
34072;SDS011;20346;52.702;16.886;2024-03-25T01:54:54;4.60;;;4.10;;
34072;SDS011;20346;52.702;16.886;2024-03-25T01:57:19;6.70;;;5.50;;
34072;SDS011;20346;52.702;16.886;2024-03-25T01:59:46;6.60;;;6.00;;
34072;SDS011;20346;52.702;16.886;2024-03-25T02:02:11;6.50;;;5.90;;
34072;SDS011;20346;52.702;16.886;2024-03-25T02:04:38;10.40;;;7.00;;
34072;SDS011;20346;52.702;16.886;2024-03-25T02:07:05;11.10;;;7.70;;
34072;SDS011;20346;52.702;16.886;2024-03-25T02:09:32;9.80;;;7.90;;
34072;SDS011;20346;52.702;16.886;2024-03-25T02:11:58;12.60;;;7.70;;
34072;SDS011;20346;52.702;16.886;2024-03-25T02:14:24;12.00;;;7.40;;
34072;SDS011;20346;52.702;16.886;2024-03-25T02:16:50;7.80;;;6.90;;
34072;SDS011;20346;52.702;16.886;2024-03-25T02:19:15;8.00;;;6.70;;
34072;SDS011;20346;52.702;16.886;2024-03-25T02:21:40;9.00;;;7.20;;
34072;SDS011;20346;52.702;16.886;2024-03-25T02:24:07;7.10;;;6.40;;
34072;SDS011;20346;52.702;16.886;2024-03-25T02:26:34;8.70;;;7.10;;
34072;SDS011;20346;52.702;16.886;2024-03-25T02:29:00;7.00;;;6.20;;
34072;SDS011;20346;52.702;16.886;2024-03-25T02:31:25;9.20;;;7.80;;
34072;SDS011;20346;52.702;16.886;2024-03-25T02:33:50;7.90;;;6.80;;
34072;SDS011;20346;52.702;16.886;2024-03-25T02:36:16;7.30;;;6.60;;
34072;SDS011;20346;52.702;16.886;2024-03-25T02:38:41;7.80;;;7.00;;
34072;SDS011;20346;52.702;16.886;2024-03-25T02:41:07;9.40;;;7.10;;
34072;SDS011;20346;52.702;16.886;2024-03-25T02:43:33;7.50;;;6.60;;
34072;SDS011;20346;52.702;16.886;2024-03-25T02:45:58;8.80;;;6.80;;
34072;SDS011;20346;52.702;16.886;2024-03-25T02:48:24;7.10;;;6.40;;
34072;SDS011;20346;52.702;16.886;2024-03-25T02:50:49;8.10;;;7.20;;
34072;SDS011;20346;52.702;16.886;2024-03-25T02:53:15;7.50;;;6.30;;
34072;SDS011;20346;52.702;16.886;2024-03-25T02:55:41;7.60;;;6.20;;
34072;SDS011;20346;52.702;16.886;2024-03-25T02:58:06;9.90;;;7.10;;
34072;SDS011;20346;52.702;16.886;2024-03-25T03:00:31;8.90;;;7.20;;
34072;SDS011;20346;52.702;16.886;2024-03-25T03:02:57;8.60;;;7.70;;
34072;SDS011;20346;52.702;16.886;2024-03-25T03:05:22;9.30;;;6.90;;
34072;SDS011;20346;52.702;16.886;2024-03-25T03:07:47;9.40;;;7.50;;
34072;SDS011;20346;52.702;16.886;2024-03-25T03:10:13;9.90;;;7.20;;
34072;SDS011;20346;52.702;16.886;2024-03-25T03:12:38;7.80;;;7.00;;
34072;SDS011;20346;52.702;16.886;2024-03-25T03:15:03;10.70;;;7.50;;
34072;SDS011;20346;52.702;16.886;2024-03-25T03:17:29;8.70;;;7.50;;
34072;SDS011;20346;52.702;16.886;2024-03-25T03:19:54;8.50;;;7.70;;
34072;SDS011;20346;52.702;16.886;2024-03-25T03:22:20;7.80;;;7.00;;
34072;SDS011;20346;52.702;16.886;2024-03-25T03:24:45;8.00;;;6.30;;
34072;SDS011;20346;52.702;16.886;2024-03-25T03:27:10;7.70;;;7.00;;
34072;SDS011;20346;52.702;16.886;2024-03-25T03:29:36;7.90;;;6.40;;
34072;SDS011;20346;52.702;16.886;2024-03-25T03:32:01;7.10;;;6.40;;
34072;SDS011;20346;52.702;16.886;2024-03-25T03:34:26;8.10;;;7.20;;
34072;SDS011;20346;52.702;16.886;2024-03-25T03:36:52;7.90;;;6.80;;
34072;SDS011;20346;52.702;16.886;2024-03-25T03:39:17;10.50;;;6.70;;
34072;SDS011;20346;52.702;16.886;2024-03-25T03:41:42;9.40;;;7.40;;
34072;SDS011;20346;52.702;16.886;2024-03-25T03:44:08;6.90;;;6.20;;
34072;SDS011;20346;52.702;16.886;2024-03-25T03:46:34;8.80;;;6.80;;
34072;SDS011;20346;52.702;16.886;2024-03-25T03:49:00;7.40;;;6.50;;
34072;SDS011;20346;52.702;16.886;2024-03-25T03:51:25;9.90;;;6.90;;
34072;SDS011;20346;52.702;16.886;2024-03-25T03:53:51;7.80;;;6.30;;
34072;SDS011;20346;52.702;16.886;2024-03-25T03:56:16;9.40;;;6.70;;
34072;SDS011;20346;52.702;16.886;2024-03-25T03:58:42;8.70;;;7.40;;
34072;SDS011;20346;52.702;16.886;2024-03-25T04:01:14;7.00;;;5.80;;
34072;SDS011;20346;52.702;16.886;2024-03-25T04:03:40;8.00;;;6.70;;
34072;SDS011;20346;52.702;16.886;2024-03-25T04:06:12;7.80;;;6.70;;
34072;SDS011;20346;52.702;16.886;2024-03-25T04:08:39;8.40;;;6.40;;
34072;SDS011;20346;52.702;16.886;2024-03-25T04:11:05;6.50;;;5.90;;
34072;SDS011;20346;52.702;16.886;2024-03-25T04:13:31;7.20;;;6.50;;
34072;SDS011;20346;52.702;16.886;2024-03-25T04:16:03;6.60;;;6.00;;
34072;SDS011;20346;52.702;16.886;2024-03-25T04:18:30;7.70;;;6.60;;
34072;SDS011;20346;52.702;16.886;2024-03-25T04:20:56;8.40;;;6.70;;
34072;SDS011;20346;52.702;16.886;2024-03-25T04:23:22;7.30;;;6.70;;
34072;SDS011;20346;52.702;16.886;2024-03-25T04:25:48;7.30;;;6.70;;
34072;SDS011;20346;52.702;16.886;2024-03-25T04:28:14;8.40;;;7.50;;
34072;SDS011;20346;52.702;16.886;2024-03-25T04:30:39;7.90;;;6.80;;
34072;SDS011;20346;52.702;16.886;2024-03-25T04:33:04;7.10;;;6.10;;
34072;SDS011;20346;52.702;16.886;2024-03-25T04:35:30;7.40;;;6.70;;
34072;SDS011;20346;52.702;16.886;2024-03-25T04:37:55;8.10;;;6.70;;
34072;SDS011;20346;52.702;16.886;2024-03-25T04:40:21;8.70;;;7.00;;
34072;SDS011;20346;52.702;16.886;2024-03-25T04:42:46;8.70;;;7.30;;
34072;SDS011;20346;52.702;16.886;2024-03-25T04:45:12;8.00;;;7.00;;
34072;SDS011;20346;52.702;16.886;2024-03-25T04:47:38;8.40;;;7.50;;
34072;SDS011;20346;52.702;16.886;2024-03-25T04:50:04;8.50;;;7.70;;
34072;SDS011;20346;52.702;16.886;2024-03-25T04:54:56;7.20;;;6.50;;
34072;SDS011;20346;52.702;16.886;2024-03-25T04:57:22;8.40;;;7.70;;
34072;SDS011;20346;52.702;16.886;2024-03-25T04:59:47;9.20;;;8.40;;
34072;SDS011;20346;52.702;16.886;2024-03-25T05:02:13;9.90;;;7.90;;
34072;SDS011;20346;52.702;16.886;2024-03-25T05:04:39;10.40;;;8.30;;
34072;SDS011;20346;52.702;16.886;2024-03-25T05:07:04;8.30;;;7.50;;
34072;SDS011;20346;52.702;16.886;2024-03-25T05:09:30;10.80;;;8.60;;
34072;SDS011;20346;52.702;16.886;2024-03-25T05:11:55;9.40;;;8.40;;
34072;SDS011;20346;52.702;16.886;2024-03-25T05:14:20;10.90;;;9.80;;
34072;SDS011;20346;52.702;16.886;2024-03-25T05:16:46;12.50;;;10.00;;
34072;SDS011;20346;52.702;16.886;2024-03-25T05:19:11;13.40;;;9.90;;
34072;SDS011;20346;52.702;16.886;2024-03-25T05:21:36;13.30;;;10.70;;
34072;SDS011;20346;52.702;16.886;2024-03-25T05:24:02;11.70;;;9.30;;
34072;SDS011;20346;52.702;16.886;2024-03-25T05:26:27;12.90;;;9.80;;
34072;SDS011;20346;52.702;16.886;2024-03-25T05:28:53;19.20;;;11.60;;
34072;SDS011;20346;52.702;16.886;2024-03-25T05:31:19;17.20;;;10.20;;
34072;SDS011;20346;52.702;16.886;2024-03-25T05:33:44;14.80;;;10.50;;
34072;SDS011;20346;52.702;16.886;2024-03-25T05:36:10;15.40;;;11.60;;
34072;SDS011;20346;52.702;16.886;2024-03-25T05:38:35;15.10;;;11.60;;
34072;SDS011;20346;52.702;16.886;2024-03-25T05:41:00;19.30;;;13.20;;
34072;SDS011;20346;52.702;16.886;2024-03-25T05:43:26;16.00;;;12.10;;
34072;SDS011;20346;52.702;16.886;2024-03-25T05:45:51;19.40;;;13.60;;
34072;SDS011;20346;52.702;16.886;2024-03-25T05:50:43;15.30;;;12.40;;
34072;SDS011;20346;52.702;16.886;2024-03-25T05:53:08;18.70;;;13.30;;
34072;SDS011;20346;52.702;16.886;2024-03-25T05:55:34;18.70;;;14.10;;
34072;SDS011;20346;52.702;16.886;2024-03-25T05:57:59;17.80;;;13.70;;
34072;SDS011;20346;52.702;16.886;2024-03-25T06:00:25;19.10;;;14.50;;
34072;SDS011;20346;52.702;16.886;2024-03-25T06:02:51;18.00;;;14.30;;
34072;SDS011;20346;52.702;16.886;2024-03-25T06:05:18;14.80;;;13.30;;
34072;SDS011;20346;52.702;16.886;2024-03-25T06:07:44;14.30;;;12.30;;
34072;SDS011;20346;52.702;16.886;2024-03-25T06:10:09;12.90;;;11.00;;
34072;SDS011;20346;52.702;16.886;2024-03-25T06:12:35;13.00;;;11.70;;
34072;SDS011;20346;52.702;16.886;2024-03-25T06:15:00;12.10;;;10.70;;
34072;SDS011;20346;52.702;16.886;2024-03-25T06:17:25;12.70;;;11.30;;
34072;SDS011;20346;52.702;16.886;2024-03-25T06:19:51;13.70;;;10.70;;
34072;SDS011;20346;52.702;16.886;2024-03-25T06:22:17;11.60;;;10.40;;
34072;SDS011;20346;52.702;16.886;2024-03-25T06:24:42;11.60;;;10.60;;
34072;SDS011;20346;52.702;16.886;2024-03-25T06:27:09;12.10;;;9.40;;
34072;SDS011;20346;52.702;16.886;2024-03-25T06:29:34;11.50;;;10.30;;
34072;SDS011;20346;52.702;16.886;2024-03-25T06:32:00;11.50;;;10.00;;
34072;SDS011;20346;52.702;16.886;2024-03-25T06:34:44;10.10;;;9.00;;
34072;SDS011;20346;52.702;16.886;2024-03-25T06:37:10;10.80;;;9.90;;
34072;SDS011;20346;52.702;16.886;2024-03-25T06:39:35;10.40;;;9.50;;
34072;SDS011;20346;52.702;16.886;2024-03-25T06:42:00;10.50;;;9.10;;
34072;SDS011;20346;52.702;16.886;2024-03-25T06:44:26;11.40;;;9.10;;
34072;SDS011;20346;52.702;16.886;2024-03-25T06:46:51;11.30;;;10.00;;
34072;SDS011;20346;52.702;16.886;2024-03-25T06:49:16;10.10;;;9.20;;
34072;SDS011;20346;52.702;16.886;2024-03-25T06:51:42;11.50;;;10.50;;
34072;SDS011;20346;52.702;16.886;2024-03-25T06:54:07;10.40;;;9.40;;
34072;SDS011;20346;52.702;16.886;2024-03-25T06:56:32;10.30;;;9.30;;
34072;SDS011;20346;52.702;16.886;2024-03-25T06:58:58;11.10;;;10.10;;
34072;SDS011;20346;52.702;16.886;2024-03-25T07:01:23;11.00;;;10.00;;
34072;SDS011;20346;52.702;16.886;2024-03-25T07:03:48;10.20;;;9.20;;
34072;SDS011;20346;52.702;16.886;2024-03-25T07:06:14;11.40;;;10.30;;
34072;SDS011;20346;52.702;16.886;2024-03-25T07:08:39;12.10;;;10.90;;
34072;SDS011;20346;52.702;16.886;2024-03-25T07:11:04;12.70;;;11.40;;
34072;SDS011;20346;52.702;16.886;2024-03-25T07:13:30;12.80;;;11.20;;
34072;SDS011;20346;52.702;16.886;2024-03-25T07:15:55;12.20;;;10.90;;
34072;SDS011;20346;52.702;16.886;2024-03-25T07:18:21;12.00;;;10.60;;
34072;SDS011;20346;52.702;16.886;2024-03-25T07:20:46;11.50;;;10.40;;
34072;SDS011;20346;52.702;16.886;2024-03-25T07:23:11;11.40;;;10.30;;
34072;SDS011;20346;52.702;16.886;2024-03-25T07:25:37;12.30;;;11.10;;
34072;SDS011;20346;52.702;16.886;2024-03-25T07:28:02;12.20;;;11.10;;
34072;SDS011;20346;52.702;16.886;2024-03-25T07:30:28;13.40;;;11.00;;
34072;SDS011;20346;52.702;16.886;2024-03-25T07:32:54;11.40;;;10.30;;
34072;SDS011;20346;52.702;16.886;2024-03-25T07:35:19;14.00;;;11.00;;
34072;SDS011;20346;52.702;16.886;2024-03-25T07:37:45;15.70;;;11.60;;
34072;SDS011;20346;52.702;16.886;2024-03-25T07:40:10;11.50;;;10.50;;
34072;SDS011;20346;52.702;16.886;2024-03-25T07:42:39;12.70;;;10.60;;
34072;SDS011;20346;52.702;16.886;2024-03-25T07:45:05;11.70;;;10.50;;
34072;SDS011;20346;52.702;16.886;2024-03-25T07:47:31;11.10;;;10.00;;
34072;SDS011;20346;52.702;16.886;2024-03-25T07:49:57;10.70;;;9.70;;
34072;SDS011;20346;52.702;16.886;2024-03-25T07:54:49;11.40;;;10.30;;
34072;SDS011;20346;52.702;16.886;2024-03-25T07:57:14;11.90;;;10.60;;
34072;SDS011;20346;52.702;16.886;2024-03-25T07:59:40;11.80;;;10.60;;
34072;SDS011;20346;52.702;16.886;2024-03-25T08:02:05;13.00;;;11.00;;
34072;SDS011;20346;52.702;16.886;2024-03-25T08:04:30;11.90;;;10.70;;
34072;SDS011;20346;52.702;16.886;2024-03-25T08:06:56;12.40;;;11.10;;
34072;SDS011;20346;52.702;16.886;2024-03-25T08:09:21;10.60;;;9.50;;
34072;SDS011;20346;52.702;16.886;2024-03-25T08:11:47;10.70;;;9.60;;
34072;SDS011;20346;52.702;16.886;2024-03-25T08:14:12;11.00;;;9.90;;
34072;SDS011;20346;52.702;16.886;2024-03-25T08:16:37;11.80;;;10.00;;
34072;SDS011;20346;52.702;16.886;2024-03-25T08:19:03;10.20;;;9.40;;
34072;SDS011;20346;52.702;16.886;2024-03-25T08:21:29;10.10;;;9.20;;
34072;SDS011;20346;52.702;16.886;2024-03-25T08:23:54;10.70;;;9.60;;
34072;SDS011;20346;52.702;16.886;2024-03-25T08:26:19;10.20;;;9.30;;
34072;SDS011;20346;52.702;16.886;2024-03-25T08:28:45;13.00;;;8.60;;
34072;SDS011;20346;52.702;16.886;2024-03-25T08:31:10;10.50;;;9.50;;
34072;SDS011;20346;52.702;16.886;2024-03-25T08:33:35;11.10;;;10.10;;
34072;SDS011;20346;52.702;16.886;2024-03-25T08:36:01;9.70;;;8.70;;
34072;SDS011;20346;52.702;16.886;2024-03-25T08:38:26;9.50;;;8.70;;
34072;SDS011;20346;52.702;16.886;2024-03-25T08:40:52;8.70;;;8.00;;
34072;SDS011;20346;52.702;16.886;2024-03-25T08:43:17;9.40;;;8.50;;
34072;SDS011;20346;52.702;16.886;2024-03-25T08:45:44;9.20;;;8.20;;
34072;SDS011;20346;52.702;16.886;2024-03-25T08:48:11;9.70;;;8.20;;
34072;SDS011;20346;52.702;16.886;2024-03-25T08:50:36;8.20;;;7.60;;
34072;SDS011;20346;52.702;16.886;2024-03-25T08:53:03;10.20;;;8.20;;
34072;SDS011;20346;52.702;16.886;2024-03-25T08:55:28;7.90;;;7.20;;
34072;SDS011;20346;52.702;16.886;2024-03-25T08:57:54;4.80;;;4.40;;
34072;SDS011;20346;52.702;16.886;2024-03-25T09:00:19;3.50;;;3.20;;
34072;SDS011;20346;52.702;16.886;2024-03-25T09:02:45;3.40;;;3.20;;
34072;SDS011;20346;52.702;16.886;2024-03-25T09:05:10;3.30;;;3.00;;
34072;SDS011;20346;52.702;16.886;2024-03-25T09:07:35;3.20;;;2.90;;
34072;SDS011;20346;52.702;16.886;2024-03-25T09:10:01;3.00;;;2.80;;
34072;SDS011;20346;52.702;16.886;2024-03-25T09:12:45;3.50;;;3.20;;
34072;SDS011;20346;52.702;16.886;2024-03-25T09:15:10;4.20;;;2.80;;
34072;SDS011;20346;52.702;16.886;2024-03-25T09:17:36;5.30;;;4.90;;
34072;SDS011;20346;52.702;16.886;2024-03-25T09:20:01;5.50;;;5.00;;
34072;SDS011;20346;52.702;16.886;2024-03-25T09:22:29;5.80;;;5.30;;
34072;SDS011;20346;52.702;16.886;2024-03-25T09:24:54;7.40;;;6.70;;
34072;SDS011;20346;52.702;16.886;2024-03-25T09:27:20;7.60;;;7.00;;
34072;SDS011;20346;52.702;16.886;2024-03-25T09:29:45;7.10;;;6.60;;
34072;SDS011;20346;52.702;16.886;2024-03-25T09:32:10;8.30;;;6.70;;
34072;SDS011;20346;52.702;16.886;2024-03-25T09:34:36;8.20;;;7.50;;
34072;SDS011;20346;52.702;16.886;2024-03-25T09:37:01;8.00;;;7.30;;
34072;SDS011;20346;52.702;16.886;2024-03-25T09:39:26;8.10;;;7.50;;
34072;SDS011;20346;52.702;16.886;2024-03-25T09:41:53;8.50;;;7.80;;
34072;SDS011;20346;52.702;16.886;2024-03-25T09:44:22;9.40;;;8.40;;
34072;SDS011;20346;52.702;16.886;2024-03-25T09:46:50;9.60;;;8.70;;
34072;SDS011;20346;52.702;16.886;2024-03-25T09:49:16;8.90;;;8.10;;
34072;SDS011;20346;52.702;16.886;2024-03-25T09:51:42;8.50;;;7.80;;
34072;SDS011;20346;52.702;16.886;2024-03-25T09:54:08;9.00;;;8.20;;
34072;SDS011;20346;52.702;16.886;2024-03-25T09:56:33;8.80;;;8.10;;
34072;SDS011;20346;52.702;16.886;2024-03-25T09:58:59;8.60;;;7.80;;
34072;SDS011;20346;52.702;16.886;2024-03-25T10:01:25;7.70;;;7.00;;
34072;SDS011;20346;52.702;16.886;2024-03-25T10:03:50;7.10;;;6.60;;
34072;SDS011;20346;52.702;16.886;2024-03-25T10:06:16;7.90;;;7.20;;
34072;SDS011;20346;52.702;16.886;2024-03-25T10:08:41;7.10;;;6.50;;
34072;SDS011;20346;52.702;16.886;2024-03-25T10:11:06;6.30;;;5.80;;
34072;SDS011;20346;52.702;16.886;2024-03-25T10:13:32;6.80;;;6.30;;
34072;SDS011;20346;52.702;16.886;2024-03-25T10:15:57;6.60;;;6.00;;
34072;SDS011;20346;52.702;16.886;2024-03-25T10:18:23;6.80;;;6.30;;
34072;SDS011;20346;52.702;16.886;2024-03-25T10:20:51;5.30;;;4.90;;
34072;SDS011;20346;52.702;16.886;2024-03-25T10:23:21;5.30;;;4.30;;
34072;SDS011;20346;52.702;16.886;2024-03-25T10:25:54;3.70;;;3.40;;
34072;SDS011;20346;52.702;16.886;2024-03-25T10:28:20;4.00;;;3.70;;
34072;SDS011;20346;52.702;16.886;2024-03-25T10:30:46;2.90;;;2.60;;
34072;SDS011;20346;52.702;16.886;2024-03-25T10:33:12;3.20;;;3.00;;
34072;SDS011;20346;52.702;16.886;2024-03-25T10:35:38;2.60;;;2.50;;
34072;SDS011;20346;52.702;16.886;2024-03-25T10:38:05;2.60;;;2.40;;
34072;SDS011;20346;52.702;16.886;2024-03-25T10:40:36;3.50;;;3.00;;
34072;SDS011;20346;52.702;16.886;2024-03-25T10:43:03;3.00;;;2.80;;
34072;SDS011;20346;52.702;16.886;2024-03-25T10:45:29;2.90;;;2.70;;
34072;SDS011;20346;52.702;16.886;2024-03-25T10:47:58;3.40;;;3.10;;
34072;SDS011;20346;52.702;16.886;2024-03-25T10:50:28;3.00;;;2.80;;
34072;SDS011;20346;52.702;16.886;2024-03-25T10:55:21;2.50;;;2.30;;
34072;SDS011;20346;52.702;16.886;2024-03-25T10:57:47;3.20;;;2.50;;
34072;SDS011;20346;52.702;16.886;2024-03-25T11:00:14;2.30;;;2.20;;
34072;SDS011;20346;52.702;16.886;2024-03-25T11:05:08;2.50;;;2.30;;
34072;SDS011;20346;52.702;16.886;2024-03-25T11:07:35;2.30;;;2.10;;
34072;SDS011;20346;52.702;16.886;2024-03-25T11:10:06;3.90;;;2.20;;
34072;SDS011;20346;52.702;16.886;2024-03-25T11:12:35;2.30;;;2.10;;
34072;SDS011;20346;52.702;16.886;2024-03-25T11:15:03;2.80;;;2.60;;
34072;SDS011;20346;52.702;16.886;2024-03-25T11:17:30;2.50;;;2.40;;
34072;SDS011;20346;52.702;16.886;2024-03-25T11:20:17;2.80;;;2.60;;
34072;SDS011;20346;52.702;16.886;2024-03-25T11:22:52;2.60;;;2.40;;
34072;SDS011;20346;52.702;16.886;2024-03-25T11:27:46;3.40;;;3.10;;
34072;SDS011;20346;52.702;16.886;2024-03-25T11:30:12;2.60;;;2.40;;
34072;SDS011;20346;52.702;16.886;2024-03-25T11:32:54;3.30;;;3.00;;
34072;SDS011;20346;52.702;16.886;2024-03-25T11:35:20;2.90;;;2.70;;
34072;SDS011;20346;52.702;16.886;2024-03-25T11:37:46;2.80;;;2.60;;
34072;SDS011;20346;52.702;16.886;2024-03-25T11:40:12;2.30;;;2.10;;
34072;SDS011;20346;52.702;16.886;2024-03-25T11:42:39;1.40;;;1.30;;
34072;SDS011;20346;52.702;16.886;2024-03-25T11:45:06;2.10;;;1.60;;
34072;SDS011;20346;52.702;16.886;2024-03-25T11:47:32;1.30;;;1.20;;
34072;SDS011;20346;52.702;16.886;2024-03-25T11:49:58;1.50;;;1.40;;
34072;SDS011;20346;52.702;16.886;2024-03-25T11:52:23;1.50;;;1.40;;
34072;SDS011;20346;52.702;16.886;2024-03-25T11:54:55;1.40;;;1.30;;
34072;SDS011;20346;52.702;16.886;2024-03-25T11:57:21;1.90;;;1.60;;
34072;SDS011;20346;52.702;16.886;2024-03-25T11:59:47;1.90;;;1.80;;
34072;SDS011;20346;52.702;16.886;2024-03-25T12:02:14;3.20;;;2.30;;
34072;SDS011;20346;52.702;16.886;2024-03-25T12:04:44;1.30;;;1.20;;
34072;SDS011;20346;52.702;16.886;2024-03-25T12:07:16;1.20;;;1.10;;
34072;SDS011;20346;52.702;16.886;2024-03-25T12:09:42;1.70;;;1.60;;
34072;SDS011;20346;52.702;16.886;2024-03-25T12:12:26;1.90;;;1.60;;
34072;SDS011;20346;52.702;16.886;2024-03-25T12:14:52;1.40;;;1.30;;
34072;SDS011;20346;52.702;16.886;2024-03-25T12:17:19;1.90;;;1.70;;
34072;SDS011;20346;52.702;16.886;2024-03-25T12:19:58;2.10;;;1.90;;
34072;SDS011;20346;52.702;16.886;2024-03-25T12:22:26;2.40;;;2.10;;
34072;SDS011;20346;52.702;16.886;2024-03-25T12:24:52;5.60;;;2.40;;
34072;SDS011;20346;52.702;16.886;2024-03-25T12:27:17;3.30;;;2.30;;
34072;SDS011;20346;52.702;16.886;2024-03-25T12:29:43;2.90;;;2.40;;
34072;SDS011;20346;52.702;16.886;2024-03-25T12:32:09;2.20;;;2.10;;
34072;SDS011;20346;52.702;16.886;2024-03-25T12:37:01;3.10;;;2.80;;
34072;SDS011;20346;52.702;16.886;2024-03-25T12:39:32;4.00;;;3.00;;
34072;SDS011;20346;52.702;16.886;2024-03-25T12:41:57;4.10;;;3.40;;
34072;SDS011;20346;52.702;16.886;2024-03-25T12:44:23;3.90;;;3.60;;
34072;SDS011;20346;52.702;16.886;2024-03-25T12:46:48;5.30;;;4.30;;
34072;SDS011;20346;52.702;16.886;2024-03-25T12:49:15;8.30;;;4.80;;
34072;SDS011;20346;52.702;16.886;2024-03-25T12:51:41;5.90;;;4.00;;
34072;SDS011;20346;52.702;16.886;2024-03-25T12:54:06;6.30;;;4.50;;
34072;SDS011;20346;52.702;16.886;2024-03-25T12:56:32;7.80;;;4.50;;
34072;SDS011;20346;52.702;16.886;2024-03-25T12:58:58;5.30;;;4.00;;
34072;SDS011;20346;52.702;16.886;2024-03-25T13:01:23;3.50;;;2.70;;
34072;SDS011;20346;52.702;16.886;2024-03-25T13:03:49;3.90;;;3.10;;
34072;SDS011;20346;52.702;16.886;2024-03-25T13:06:14;3.70;;;3.20;;
34072;SDS011;20346;52.702;16.886;2024-03-25T13:08:39;4.70;;;3.10;;
34072;SDS011;20346;52.702;16.886;2024-03-25T13:11:05;3.80;;;3.40;;
34072;SDS011;20346;52.702;16.886;2024-03-25T13:13:30;4.10;;;2.90;;
34072;SDS011;20346;52.702;16.886;2024-03-25T13:15:55;3.30;;;2.30;;
34072;SDS011;20346;52.702;16.886;2024-03-25T13:18:21;5.50;;;2.60;;
34072;SDS011;20346;52.702;16.886;2024-03-25T13:20:46;5.30;;;3.30;;
34072;SDS011;20346;52.702;16.886;2024-03-25T13:23:11;3.40;;;2.90;;
34072;SDS011;20346;52.702;16.886;2024-03-25T13:25:37;7.40;;;3.80;;
34072;SDS011;20346;52.702;16.886;2024-03-25T13:28:02;5.40;;;3.40;;
34072;SDS011;20346;52.702;16.886;2024-03-25T13:30:29;4.90;;;3.30;;
34072;SDS011;20346;52.702;16.886;2024-03-25T13:32:56;6.00;;;3.80;;
34072;SDS011;20346;52.702;16.886;2024-03-25T13:35:21;7.70;;;4.50;;
34072;SDS011;20346;52.702;16.886;2024-03-25T13:37:47;6.10;;;3.80;;
34072;SDS011;20346;52.702;16.886;2024-03-25T13:40:12;6.40;;;3.60;;
34072;SDS011;20346;52.702;16.886;2024-03-25T13:42:38;7.40;;;3.90;;
34072;SDS011;20346;52.702;16.886;2024-03-25T13:45:04;7.80;;;4.50;;
34072;SDS011;20346;52.702;16.886;2024-03-25T13:47:30;5.70;;;4.20;;
34072;SDS011;20346;52.702;16.886;2024-03-25T13:50:01;7.00;;;4.60;;
34072;SDS011;20346;52.702;16.886;2024-03-25T13:52:33;7.80;;;4.40;;
34072;SDS011;20346;52.702;16.886;2024-03-25T13:54:58;8.40;;;4.60;;
34072;SDS011;20346;52.702;16.886;2024-03-25T13:57:23;8.20;;;5.10;;
34072;SDS011;20346;52.702;16.886;2024-03-25T13:59:50;10.40;;;5.00;;
34072;SDS011;20346;52.702;16.886;2024-03-25T14:02:16;7.60;;;4.90;;
34072;SDS011;20346;52.702;16.886;2024-03-25T14:04:41;7.90;;;5.00;;
34072;SDS011;20346;52.702;16.886;2024-03-25T14:07:07;6.80;;;4.70;;
34072;SDS011;20346;52.702;16.886;2024-03-25T14:09:32;9.90;;;5.40;;
34072;SDS011;20346;52.702;16.886;2024-03-25T14:11:57;9.00;;;5.00;;
34072;SDS011;20346;52.702;16.886;2024-03-25T14:14:23;8.50;;;5.30;;
34072;SDS011;20346;52.702;16.886;2024-03-25T14:16:48;9.10;;;5.10;;
34072;SDS011;20346;52.702;16.886;2024-03-25T14:19:14;10.10;;;5.90;;
34072;SDS011;20346;52.702;16.886;2024-03-25T14:21:40;9.90;;;5.10;;
34072;SDS011;20346;52.702;16.886;2024-03-25T14:24:05;7.80;;;5.40;;
34072;SDS011;20346;52.702;16.886;2024-03-25T14:26:31;10.60;;;5.40;;
34072;SDS011;20346;52.702;16.886;2024-03-25T14:28:57;9.60;;;5.30;;
34072;SDS011;20346;52.702;16.886;2024-03-25T14:31:24;9.00;;;5.20;;
34072;SDS011;20346;52.702;16.886;2024-03-25T14:33:50;10.20;;;5.90;;
34072;SDS011;20346;52.702;16.886;2024-03-25T14:36:15;10.70;;;5.80;;
34072;SDS011;20346;52.702;16.886;2024-03-25T14:38:40;11.60;;;5.10;;
34072;SDS011;20346;52.702;16.886;2024-03-25T14:41:06;8.90;;;4.80;;